createdAt,value
2022-12-02T00:03:48.457Z,25.47
2022-12-02T00:06:17.657Z,26.20
2022-12-02T00:08:47.340Z,26.23
2022-12-02T00:11:24.836Z,27.57
2022-12-02T00:13:53.226Z,27.80
2022-12-02T00:16:22.183Z,28.30
2022-12-02T00:18:50.844Z,26.30
2022-12-02T00:21:19.534Z,26.07
2022-12-02T00:23:49.522Z,26.47
2022-12-02T00:26:17.999Z,26.53
2022-12-02T00:28:46.373Z,26.17
2022-12-02T00:31:14.760Z,26.50
2022-12-02T00:33:43.477Z,24.83
2022-12-02T00:36:11.857Z,27.10
2022-12-02T00:38:40.171Z,27.20
2022-12-02T00:41:09.915Z,28.63
2022-12-02T00:43:55.804Z,28.70
2022-12-02T00:49:53.100Z,28.13
2022-12-02T00:52:21.463Z,30.80
2022-12-02T00:54:50.059Z,27.93
2022-12-02T00:57:19.915Z,27.50
2022-12-02T00:59:48.255Z,25.40
2022-12-02T01:02:16.682Z,25.63
2022-12-02T01:04:45.035Z,24.90
2022-12-02T01:07:15.059Z,23.90
2022-12-02T01:09:43.412Z,24.10
2022-12-02T01:12:11.802Z,25.13
2022-12-02T01:14:41.650Z,24.83
2022-12-02T01:17:10.077Z,24.63
2022-12-02T01:19:38.446Z,23.20
2022-12-02T01:22:06.835Z,23.20
2022-12-02T01:24:35.230Z,25.00
2022-12-02T01:27:03.613Z,22.77
2022-12-02T01:29:32.011Z,26.20
2022-12-02T01:32:01.832Z,25.47
2022-12-02T01:34:30.254Z,25.60
2022-12-02T01:36:58.636Z,24.47
2022-12-02T01:39:27.039Z,25.10
2022-12-02T01:41:55.538Z,24.40
2022-12-02T01:44:24.091Z,24.40
2022-12-02T01:46:52.622Z,24.03
2022-12-02T01:49:22.820Z,24.43
2022-12-02T01:51:51.358Z,24.60
2022-12-02T01:54:19.867Z,23.87
2022-12-02T01:56:48.478Z,22.27
2022-12-02T01:59:18.077Z,21.77
2022-12-02T02:01:46.655Z,20.50
2022-12-02T02:04:15.244Z,20.13
2022-12-02T02:06:45.834Z,20.13
2022-12-02T02:09:14.610Z,19.73
2022-12-02T02:11:43.811Z,18.83
2022-12-02T02:14:13.312Z,18.77
2022-12-02T02:16:42.211Z,20.47
2022-12-02T02:19:12.801Z,20.83
2022-12-02T02:21:42.605Z,20.27
2022-12-02T02:24:12.326Z,20.70
2022-12-02T02:26:40.683Z,20.70
2022-12-02T02:29:09.017Z,22.83
2022-12-02T02:31:37.468Z,23.97
2022-12-02T02:34:05.847Z,22.70
2022-12-02T02:36:34.833Z,24.37
2022-12-02T02:39:03.351Z,24.23
2022-12-02T02:41:33.195Z,22.30
2022-12-02T02:44:01.605Z,23.47
2022-12-02T02:46:30.061Z,22.23
2022-12-02T02:48:58.523Z,21.93
2022-12-02T02:51:26.984Z,21.23
2022-12-02T02:53:55.363Z,22.43
2022-12-02T02:56:23.826Z,22.60
2022-12-02T02:58:53.896Z,22.40
2022-12-02T03:01:23.486Z,22.73
2022-12-02T03:03:56.331Z,22.07
2022-12-02T03:06:26.535Z,23.40
2022-12-02T03:08:55.545Z,22.10
2022-12-02T03:11:24.060Z,21.27
2022-12-02T03:13:54.241Z,22.20
2022-12-02T03:16:23.969Z,22.03
2022-12-02T03:18:53.393Z,21.30
2022-12-02T03:21:22.759Z,22.67
2022-12-02T03:23:53.673Z,23.80
2022-12-02T03:26:22.092Z,23.67
2022-12-02T03:28:50.560Z,23.67
2022-12-02T03:31:20.368Z,23.53
2022-12-02T03:33:49.086Z,22.50
2022-12-02T03:36:17.511Z,23.17
2022-12-02T03:38:45.967Z,25.13
2022-12-02T03:41:14.797Z,23.40
2022-12-02T03:43:43.248Z,25.47
2022-12-02T03:46:12.060Z,25.97
2022-12-02T03:48:42.169Z,25.77
2022-12-02T03:51:10.727Z,27.37
2022-12-02T03:53:39.116Z,28.47
2022-12-02T03:56:08.202Z,27.67
2022-12-02T03:58:37.842Z,26.93
2022-12-02T04:01:06.572Z,28.10
2022-12-02T04:03:35.028Z,27.17
2022-12-02T04:06:04.858Z,27.77
2022-12-02T04:08:33.280Z,27.23
2022-12-02T04:11:02.378Z,27.87
2022-12-02T04:13:30.801Z,27.80
2022-12-02T04:15:59.259Z,28.57
2022-12-02T04:18:27.637Z,27.17
2022-12-02T04:20:55.997Z,27.20
2022-12-02T04:23:25.782Z,27.93
2022-12-02T04:25:54.200Z,26.33
2022-12-02T04:28:22.610Z,25.13
2022-12-02T04:30:51.056Z,26.03
2022-12-02T04:33:19.494Z,24.73
2022-12-02T04:35:48.017Z,26.17
2022-12-02T04:38:16.437Z,25.13
2022-12-02T04:40:46.225Z,24.50
2022-12-02T04:43:14.641Z,24.17
2022-12-02T04:45:42.993Z,24.63
2022-12-02T04:48:11.602Z,25.63
2022-12-02T04:50:39.951Z,25.03
2022-12-02T04:53:08.320Z,24.70
2022-12-02T04:55:36.726Z,24.27
2022-12-02T04:58:06.725Z,24.17
2022-12-02T05:00:35.159Z,22.67
2022-12-02T05:03:04.892Z,22.33
2022-12-02T05:05:33.312Z,23.83
2022-12-02T05:08:01.795Z,21.70
2022-12-02T05:10:30.254Z,23.70
2022-12-02T05:12:58.710Z,23.97
2022-12-02T05:15:28.458Z,24.77
2022-12-02T05:17:56.796Z,25.27
2022-12-02T05:20:25.194Z,24.47
2022-12-02T05:22:53.597Z,24.77
2022-12-02T05:25:21.997Z,26.67
2022-12-02T05:27:50.409Z,25.23
2022-12-02T05:30:18.984Z,23.10
2022-12-02T05:32:48.779Z,22.03
2022-12-02T05:35:17.196Z,23.63
2022-12-02T05:37:45.634Z,23.83
2022-12-02T05:40:14.119Z,23.37
2022-12-02T05:42:42.912Z,21.93
2022-12-02T05:45:15.842Z,23.23
2022-12-02T05:47:44.602Z,24.67
2022-12-02T05:50:15.891Z,21.77
2022-12-02T05:52:44.948Z,19.53
2022-12-02T05:55:16.013Z,19.30
2022-12-02T05:57:44.710Z,19.53
2022-12-02T06:00:15.144Z,19.40
2022-12-02T06:02:46.290Z,19.20
2022-12-02T06:05:23.598Z,19.83
2022-12-02T06:07:55.266Z,20.03
2022-12-02T06:10:28.050Z,92.73
2022-12-02T06:12:58.038Z,29.63
2022-12-02T06:15:27.013Z,21.47
2022-12-02T06:17:55.491Z,20.53
2022-12-02T06:20:29.818Z,20.90
2022-12-02T06:22:58.560Z,19.33
2022-12-02T06:25:28.554Z,21.83
2022-12-02T06:27:59.657Z,21.70
2022-12-02T06:30:28.635Z,21.70
2022-12-02T06:32:57.770Z,19.93
2022-12-02T06:35:28.859Z,20.37
2022-12-02T06:37:58.345Z,20.70
2022-12-02T06:40:29.176Z,19.20
2022-12-02T06:42:58.735Z,22.23
2022-12-02T06:45:30.170Z,23.80
2022-12-02T06:48:03.033Z,33.10
2022-12-02T06:50:39.144Z,33.87
2022-12-02T06:53:22.132Z,36.23
2022-12-02T06:55:51.180Z,32.17
2022-12-02T06:58:29.392Z,27.47
2022-12-02T07:01:04.074Z,23.80
2022-12-02T07:03:35.228Z,22.30
2022-12-02T07:06:12.618Z,19.77
2022-12-02T07:08:41.002Z,34.03
2022-12-02T07:11:17.777Z,19.10
2022-12-02T07:13:46.845Z,13.50
2022-12-02T07:16:31.828Z,14.37
2022-12-02T07:19:01.909Z,13.47
2022-12-02T07:21:31.918Z,14.13
2022-12-02T07:24:00.294Z,12.37
2022-12-02T07:26:28.722Z,13.27
2022-12-02T07:29:14.899Z,11.90
2022-12-02T07:31:44.718Z,11.43
2022-12-02T07:34:13.627Z,12.73
2022-12-02T07:36:43.845Z,11.17
2022-12-02T07:39:12.386Z,12.10
2022-12-02T07:41:40.779Z,11.63
2022-12-02T07:44:09.164Z,11.00
2022-12-02T07:46:37.584Z,11.43
2022-12-02T07:49:06.010Z,10.47
2022-12-02T07:51:34.342Z,10.60
2022-12-02T07:54:04.079Z,10.50
2022-12-02T07:56:34.114Z,10.23
2022-12-02T07:59:13.362Z,10.40
2022-12-02T08:01:46.792Z,12.40
2022-12-02T08:04:15.426Z,12.77
2022-12-02T08:06:43.837Z,11.90
2022-12-02T08:09:13.560Z,13.13
2022-12-02T08:11:42.020Z,11.80
2022-12-02T08:14:10.443Z,11.90
2022-12-02T08:16:38.826Z,11.57
2022-12-02T08:19:07.578Z,11.97
2022-12-02T08:21:35.954Z,11.43
2022-12-02T08:24:05.888Z,10.53
2022-12-02T08:26:36.236Z,9.50
2022-12-02T08:29:04.601Z,9.60
2022-12-02T08:31:33.037Z,9.83
2022-12-02T08:34:06.902Z,9.73
2022-12-02T08:36:36.126Z,10.97
2022-12-02T08:39:06.125Z,13.10
2022-12-02T08:41:36.117Z,12.03
2022-12-02T08:44:04.512Z,11.57
2022-12-02T08:46:33.290Z,10.50
2022-12-02T08:49:02.124Z,9.60
2022-12-02T08:51:30.598Z,9.90
2022-12-02T08:53:59.008Z,12.60
2022-12-02T08:56:27.366Z,12.57
2022-12-02T08:58:57.055Z,12.60
2022-12-02T09:01:25.518Z,11.40
2022-12-02T09:03:53.940Z,10.13
2022-12-02T09:06:22.297Z,10.57
2022-12-02T09:08:50.805Z,9.87
2022-12-02T09:11:19.317Z,8.43
2022-12-02T09:13:47.693Z,10.23
2022-12-02T09:16:17.515Z,10.33
2022-12-02T09:18:47.015Z,10.27
2022-12-02T09:21:15.328Z,10.43
2022-12-02T09:23:48.904Z,9.13
2022-12-02T09:26:18.992Z,8.87
2022-12-02T09:28:47.706Z,8.00
2022-12-02T09:31:17.659Z,7.07
2022-12-02T09:33:46.125Z,7.57
2022-12-02T09:36:14.520Z,7.23
2022-12-02T09:38:43.012Z,6.73
2022-12-02T09:41:11.611Z,7.30
2022-12-02T09:43:40.066Z,7.43
2022-12-02T09:46:09.402Z,7.13
2022-12-02T09:48:39.697Z,8.03
2022-12-02T09:51:08.890Z,6.87
2022-12-02T09:53:39.258Z,7.10
2022-12-02T09:56:08.245Z,6.43
2022-12-02T09:58:36.745Z,6.80
2022-12-02T10:01:05.132Z,6.67
2022-12-02T10:03:33.604Z,6.37
2022-12-02T10:06:04.469Z,6.07
2022-12-02T10:08:32.920Z,6.27
2022-12-02T10:11:01.640Z,5.87
2022-12-02T10:13:30.710Z,6.10
2022-12-02T10:16:02.743Z,5.80
2022-12-02T10:18:32.546Z,4.53
2022-12-02T10:21:01.063Z,5.40
2022-12-02T10:23:37.822Z,5.40
2022-12-02T10:26:14.569Z,5.37
2022-12-02T10:28:44.086Z,110.87
2022-12-02T10:31:13.770Z,6.50
2022-12-02T10:33:44.744Z,4.80
2022-12-02T10:36:13.138Z,4.70
2022-12-02T10:38:44.039Z,4.23
2022-12-02T10:41:18.951Z,5.10
2022-12-02T10:44:02.073Z,4.97
2022-12-02T10:46:30.829Z,5.30
2022-12-02T10:49:16.160Z,6.27
2022-12-02T10:51:44.576Z,6.33
2022-12-02T10:54:26.052Z,5.43
2022-12-02T10:56:55.818Z,6.47
2022-12-02T10:59:28.416Z,5.30
2022-12-02T11:01:57.435Z,5.07
2022-12-02T11:04:26.614Z,5.90
2022-12-02T11:06:56.091Z,4.93
2022-12-02T11:09:42.292Z,6.40
2022-12-02T11:12:33.420Z,6.37
2022-12-02T11:15:02.283Z,4.40
2022-12-02T11:17:49.286Z,5.70
2022-12-02T11:20:22.812Z,5.87
2022-12-02T11:23:08.919Z,6.20
2022-12-02T11:25:56.262Z,6.80
2022-12-02T11:28:36.661Z,7.80
2022-12-02T11:31:19.147Z,9.03
2022-12-02T11:34:06.192Z,8.63
2022-12-02T11:36:35.583Z,7.57
2022-12-02T11:39:06.759Z,6.63
2022-12-02T11:41:53.815Z,4.87
2022-12-02T11:44:27.519Z,5.80
2022-12-02T11:46:57.058Z,7.93
2022-12-02T11:49:30.681Z,6.73
2022-12-02T11:52:08.362Z,6.63
2022-12-02T11:54:38.726Z,5.40
2022-12-02T11:57:07.613Z,5.17
2022-12-02T11:59:38.405Z,5.90
2022-12-02T12:02:10.717Z,6.37
2022-12-02T12:04:39.161Z,6.93
2022-12-02T12:07:07.558Z,5.53
2022-12-02T12:09:36.370Z,6.73
2022-12-02T12:12:08.798Z,7.10
2022-12-02T12:14:52.203Z,6.43
2022-12-02T12:17:32.456Z,6.97
2022-12-02T12:20:00.836Z,8.77
2022-12-02T12:22:30.135Z,9.23
2022-12-02T12:25:13.327Z,9.03
2022-12-02T12:27:41.667Z,8.50
2022-12-02T12:30:11.426Z,7.30
2022-12-02T12:32:41.228Z,8.20
2022-12-02T12:35:10.198Z,9.30
2022-12-02T12:37:38.556Z,8.03
2022-12-02T12:40:07.553Z,7.53
2022-12-02T12:42:35.927Z,10.03
2022-12-02T12:45:04.337Z,9.93
2022-12-02T12:47:32.755Z,8.17
2022-12-02T12:50:02.587Z,9.87
2022-12-02T12:52:31.095Z,7.27
2022-12-02T12:54:59.542Z,7.90
2022-12-02T12:57:27.924Z,7.80
2022-12-02T12:59:56.379Z,7.10
2022-12-02T13:02:24.987Z,6.53
2022-12-02T13:04:53.843Z,6.27
2022-12-02T13:07:23.887Z,5.97
2022-12-02T13:09:52.480Z,12.27
2022-12-02T13:12:21.280Z,8.30
2022-12-02T13:14:50.167Z,7.07
2022-12-02T13:17:18.864Z,6.97
2022-12-02T13:19:47.340Z,6.97
2022-12-02T13:22:15.759Z,8.93
2022-12-02T13:24:45.525Z,7.90
2022-12-02T13:27:13.928Z,11.93
2022-12-02T13:29:42.298Z,11.57
2022-12-02T13:32:10.709Z,7.97
2022-12-02T13:34:39.090Z,7.90
2022-12-02T13:37:07.444Z,7.90
2022-12-02T13:39:36.151Z,8.23
2022-12-02T13:42:07.511Z,8.07
2022-12-02T13:44:37.805Z,6.70
2022-12-02T13:47:06.275Z,9.40
2022-12-02T13:49:35.009Z,10.43
2022-12-02T13:52:03.393Z,14.80
2022-12-02T13:54:31.767Z,8.07
2022-12-02T13:57:00.541Z,10.23
2022-12-02T13:59:35.989Z,9.27
2022-12-02T14:02:06.462Z,7.90
2022-12-02T14:04:35.028Z,9.43
2022-12-02T14:07:03.674Z,8.67
2022-12-02T14:09:32.090Z,6.53
2022-12-02T14:12:00.480Z,9.67
2022-12-02T14:14:30.212Z,9.10
2022-12-02T14:16:58.672Z,6.77
2022-12-02T14:19:27.076Z,8.07
2022-12-02T14:21:56.529Z,7.60
2022-12-02T14:24:25.091Z,7.60
2022-12-02T14:26:53.552Z,9.23
2022-12-02T14:29:22.404Z,9.97
2022-12-02T14:31:52.508Z,8.77
2022-12-02T14:34:21.121Z,30.37
2022-12-02T14:36:49.586Z,14.30
2022-12-02T14:39:17.921Z,14.23
2022-12-02T14:41:47.309Z,11.20
2022-12-02T14:44:16.322Z,10.93
2022-12-02T14:46:47.202Z,9.73
2022-12-02T14:52:05.779Z,8.60
2022-12-02T14:54:34.204Z,8.50
2022-12-02T14:57:02.571Z,8.53
2022-12-02T14:59:30.956Z,8.27
2022-12-02T15:02:00.478Z,7.63
2022-12-02T15:04:30.394Z,8.67
2022-12-02T15:06:58.938Z,10.73
2022-12-02T15:09:28.723Z,12.23
2022-12-02T15:11:58.853Z,10.50
2022-12-02T15:14:27.544Z,12.90
2022-12-02T15:16:57.266Z,11.97
2022-12-02T15:19:25.948Z,10.43
2022-12-02T15:21:55.834Z,9.07
2022-12-02T15:24:25.379Z,9.97
2022-12-02T15:26:55.853Z,10.07
2022-12-02T15:29:25.620Z,7.83
2022-12-02T15:31:54.830Z,8.33
2022-12-02T15:34:23.675Z,7.90
2022-12-02T15:36:52.121Z,8.03
2022-12-02T15:39:21.847Z,8.23
2022-12-02T15:41:50.179Z,6.87
2022-12-02T15:44:20.892Z,6.80
2022-12-02T15:46:49.344Z,6.50
2022-12-02T15:49:17.756Z,6.70
2022-12-02T15:51:46.137Z,6.10
2022-12-02T15:54:14.510Z,16.13
2022-12-02T15:56:44.289Z,10.30
2022-12-02T15:59:12.839Z,15.73
2022-12-02T16:01:41.359Z,11.13
2022-12-02T16:04:09.910Z,10.03
2022-12-02T16:06:38.263Z,8.50
2022-12-02T16:09:07.928Z,8.17
2022-12-02T16:11:37.665Z,7.57
2022-12-02T16:14:13.654Z,10.60
2022-12-02T16:16:42.264Z,18.80
2022-12-02T16:19:10.724Z,26.57
2022-12-02T16:21:40.236Z,16.40
2022-12-02T16:24:09.045Z,6.57
2022-12-02T16:26:37.399Z,8.07
2022-12-02T16:29:05.821Z,8.47
2022-12-02T16:31:35.839Z,12.47
2022-12-02T16:34:04.836Z,10.60
2022-12-02T16:36:34.427Z,13.57
2022-12-02T16:39:03.167Z,11.13
2022-12-02T16:41:32.081Z,8.00
2022-12-02T16:44:00.845Z,7.73
2022-12-02T16:46:30.014Z,11.83
2022-12-02T16:49:00.611Z,9.30
2022-12-02T16:51:29.153Z,8.17
2022-12-02T16:53:58.092Z,9.70
2022-12-02T16:56:26.553Z,8.00
2022-12-02T16:58:56.193Z,9.20
2022-12-02T17:01:26.485Z,8.20
2022-12-02T17:03:56.636Z,7.53
2022-12-02T17:06:27.682Z,7.17
2022-12-02T17:08:57.406Z,7.87
2022-12-02T17:11:26.023Z,8.60
2022-12-02T17:13:54.452Z,9.43
2022-12-02T17:16:22.808Z,8.40
2022-12-02T17:18:51.273Z,8.23
2022-12-02T17:21:19.613Z,8.23
2022-12-02T17:23:49.407Z,9.30
2022-12-02T17:26:17.725Z,7.57
2022-12-02T17:28:47.052Z,8.37
2022-12-02T17:31:15.638Z,8.40
2022-12-02T17:33:43.986Z,7.63
2022-12-02T17:36:13.696Z,7.87
2022-12-02T17:38:56.264Z,8.13
2022-12-02T17:41:27.483Z,9.03
2022-12-02T17:43:56.903Z,10.03
2022-12-02T17:46:25.566Z,9.63
2022-12-02T17:48:54.246Z,8.37
2022-12-02T17:51:22.555Z,8.90
2022-12-02T17:53:50.899Z,7.70
2022-12-02T17:56:19.234Z,8.17
2022-12-02T17:58:50.093Z,8.10
2022-12-02T18:01:18.730Z,7.87
2022-12-02T18:03:47.376Z,22.90
2022-12-02T18:06:15.770Z,10.47
2022-12-02T18:08:44.355Z,8.87
2022-12-02T18:11:12.845Z,18.77
2022-12-02T18:13:41.252Z,12.80
2022-12-02T18:16:11.175Z,12.43
2022-12-02T18:18:39.761Z,11.87
2022-12-02T18:21:09.190Z,13.03
2022-12-02T18:23:38.975Z,16.10
2022-12-02T18:26:07.599Z,17.47
2022-12-02T18:28:36.193Z,15.77
2022-12-02T18:31:05.528Z,11.60
2022-12-02T18:33:36.406Z,12.13
2022-12-02T18:36:06.174Z,11.57
2022-12-02T18:38:34.974Z,11.80
2022-12-02T18:41:03.380Z,10.43
2022-12-02T18:43:36.132Z,8.83
2022-12-02T18:46:05.546Z,8.87
2022-12-02T18:48:35.614Z,10.57
2022-12-02T18:51:05.160Z,10.60
2022-12-02T18:53:33.856Z,11.80
2022-12-02T18:56:02.258Z,12.40
2022-12-02T18:58:31.028Z,10.37
2022-12-02T19:00:59.536Z,9.47
2022-12-02T19:03:27.977Z,10.07
2022-12-02T19:05:57.757Z,9.17
2022-12-02T19:08:27.342Z,9.57
2022-12-02T19:10:55.965Z,8.90
2022-12-02T19:13:24.312Z,9.30
2022-12-02T19:15:52.796Z,10.80
2022-12-02T19:18:22.140Z,10.20
2022-12-02T19:20:50.754Z,9.47
2022-12-02T19:23:20.590Z,9.87
2022-12-02T19:25:50.595Z,9.50
2022-12-02T19:28:19.221Z,10.60
2022-12-02T19:30:47.763Z,9.00
2022-12-02T19:33:16.158Z,9.00
2022-12-02T19:35:44.557Z,16.87
2022-12-02T19:38:15.338Z,10.30
2022-12-02T19:40:46.089Z,9.63
2022-12-02T19:43:14.761Z,10.43
2022-12-02T19:45:43.549Z,10.87
2022-12-02T19:48:12.387Z,12.13
2022-12-02T19:50:40.864Z,11.20
2022-12-02T19:53:09.353Z,10.37
2022-12-02T19:55:37.722Z,10.00
2022-12-02T19:58:07.630Z,10.37
2022-12-02T20:00:36.341Z,10.83
2022-12-02T20:03:04.880Z,13.97
2022-12-02T20:05:34.475Z,13.30
2022-12-02T20:08:03.304Z,20.13
2022-12-02T20:10:31.818Z,18.07
2022-12-02T20:13:00.220Z,16.67
2022-12-02T20:15:30.492Z,14.87
2022-12-02T20:17:59.009Z,16.67
2022-12-02T20:20:27.441Z,15.20
2022-12-02T20:22:55.857Z,15.93
2022-12-02T20:25:24.327Z,14.67
2022-12-02T20:27:54.660Z,11.40
2022-12-02T20:30:23.692Z,11.70
2022-12-02T20:32:53.398Z,11.53
2022-12-02T20:35:21.792Z,12.13
2022-12-02T20:37:50.267Z,11.57
2022-12-02T20:40:18.894Z,11.73
2022-12-02T20:42:47.418Z,11.17
2022-12-02T20:45:15.872Z,9.87
2022-12-02T20:47:44.342Z,10.67
2022-12-02T20:50:14.318Z,10.90
2022-12-02T20:52:45.892Z,10.93
2022-12-02T20:55:18.519Z,11.17
2022-12-02T20:57:48.570Z,12.03
2022-12-02T21:00:19.444Z,9.53
2022-12-02T21:02:48.351Z,12.13
2022-12-02T21:05:18.271Z,14.27
2022-12-02T21:07:46.790Z,11.23
2022-12-02T21:10:15.215Z,9.97
2022-12-02T21:12:43.609Z,11.67
2022-12-02T21:15:12.463Z,12.10
2022-12-02T21:17:40.922Z,19.23
2022-12-02T21:20:09.589Z,20.27
2022-12-02T21:22:39.430Z,25.57
2022-12-02T21:25:08.294Z,35.63
2022-12-02T21:27:36.730Z,27.57
2022-12-02T21:30:05.908Z,11.77
2022-12-02T21:32:34.456Z,10.40
2022-12-02T21:35:09.141Z,9.77
2022-12-02T21:37:39.545Z,9.07
2022-12-02T21:40:08.704Z,11.37
2022-12-02T21:42:37.184Z,11.97
2022-12-02T21:45:05.783Z,10.77
2022-12-02T21:47:34.137Z,9.00
2022-12-02T21:50:02.521Z,7.87
2022-12-02T21:52:31.025Z,8.87
2022-12-02T21:55:00.837Z,25.37
2022-12-02T21:57:29.274Z,21.50
2022-12-02T21:59:57.753Z,13.87
2022-12-02T22:02:27.584Z,9.70
2022-12-02T22:04:56.060Z,12.10
2022-12-02T22:07:43.357Z,10.00
2022-12-02T22:10:14.867Z,10.33
2022-12-02T22:12:43.342Z,9.90
2022-12-02T22:15:12.195Z,9.23
2022-12-02T22:17:40.544Z,8.83
2022-12-02T22:20:09.739Z,8.97
2022-12-02T22:22:38.073Z,9.73
2022-12-02T22:25:07.071Z,9.50
2022-12-02T22:27:36.953Z,10.10
2022-12-02T22:30:05.692Z,11.17
2022-12-02T22:32:35.224Z,11.67
2022-12-02T22:35:04.014Z,11.23
2022-12-02T22:37:32.448Z,10.63
2022-12-02T22:40:00.885Z,11.23
2022-12-02T22:42:29.552Z,10.47
2022-12-02T22:44:59.263Z,8.97
2022-12-02T22:47:27.733Z,10.53
2022-12-02T22:49:56.435Z,9.77
2022-12-02T22:52:24.820Z,11.20
2022-12-02T22:54:53.505Z,10.77
2022-12-02T22:57:22.213Z,9.87
2022-12-02T22:59:51.196Z,9.53
2022-12-02T23:02:21.066Z,9.77
2022-12-02T23:04:49.695Z,9.77
2022-12-02T23:07:18.221Z,9.83
2022-12-02T23:09:46.669Z,9.43
2022-12-02T23:12:15.092Z,8.87
2022-12-02T23:14:43.475Z,9.97
2022-12-02T23:17:11.971Z,10.30
2022-12-02T23:19:41.858Z,11.03
2022-12-02T23:22:10.283Z,10.23
2022-12-02T23:24:38.648Z,9.70
2022-12-02T23:27:07.142Z,9.80
2022-12-02T23:29:35.646Z,9.43
2022-12-02T23:32:04.142Z,8.97
2022-12-02T23:34:32.492Z,10.13
2022-12-02T23:37:02.378Z,10.07
2022-12-02T23:39:30.734Z,9.30
2022-12-02T23:41:59.186Z,9.10
2022-12-02T23:44:27.550Z,10.03
2022-12-02T23:46:56.038Z,10.30
2022-12-02T23:49:24.542Z,9.47
2022-12-02T23:51:52.976Z,10.17
2022-12-02T23:54:22.918Z,9.63
2022-12-02T23:56:51.363Z,10.20
2022-12-02T23:59:19.774Z,10.83
